Minnewana, Minnesota
Current Conditions -  °F | °C
As of 5:25 PM on Wednesday 22 Oct 2014 (Local Time) from KHZX Reporting Station
Clear Clear  
Wind Chill: 55°   Ceiling: Unl
Heat Index: 55°   Visibility: 10mi
Dew Point: 41°   Wind: 13mph
Humidity: 58%   Direction: 150°SSE
Pressure: 30.01"   Gusts: NA
Location:  46.7232°N, 93.3159°W
Report Text: KHZX 222225Z AUTO 15011KT 10SM CLR 13/05 A3001 RMK AO2
Loading
Personal Weather Stations






























Interactive Weather Map
Tropical Storm Tracking
New forecast layout! Learn more

10-Day Weather Forecast

Advertisements
Track Severe Weather on mobile